sensor_id;sensor_type;location;lat;lon;timestamp;pressure;altitude;pressure_sealevel;temperature;humidity
9523;BME280;63165;43.016;25.784;2023-11-19T00:01:01;99778.44;;;5.63;100.00
9523;BME280;63165;43.016;25.784;2023-11-19T00:03:31;99758.50;;;5.60;100.00
9523;BME280;63165;43.016;25.784;2023-11-19T00:06:01;99775.81;;;5.69;100.00
9523;BME280;63165;43.016;25.784;2023-11-19T00:08:30;99779.28;;;5.70;100.00
9523;BME280;63165;43.016;25.784;2023-11-19T00:10:57;99781.00;;;5.68;100.00
9523;BME280;63165;43.016;25.784;2023-11-19T00:13:24;99767.19;;;5.58;100.00
9523;BME280;63165;43.016;25.784;2023-11-19T00:15:54;99774.09;;;5.54;100.00
9523;BME280;63165;43.016;25.784;2023-11-19T00:18:22;99783.59;;;5.64;100.00
9523;BME280;63165;43.016;25.784;2023-11-19T00:20:49;99781.03;;;5.61;100.00
9523;BME280;63165;43.016;25.784;2023-11-19T00:23:17;99789.69;;;5.56;100.00
9523;BME280;63165;43.016;25.784;2023-11-19T00:25:44;99800.91;;;5.64;100.00
9523;BME280;63165;43.016;25.784;2023-11-19T00:28:13;99805.25;;;5.57;100.00
9523;BME280;63165;43.016;25.784;2023-11-19T00:30:41;99790.53;;;5.58;100.00
9523;BME280;63165;43.016;25.784;2023-11-19T00:33:09;99790.53;;;5.58;100.00
9523;BME280;63165;43.016;25.784;2023-11-19T00:35:37;99792.28;;;5.57;100.00
9523;BME280;63165;43.016;25.784;2023-11-19T00:38:04;99784.47;;;5.54;100.00
9523;BME280;63165;43.016;25.784;2023-11-19T00:40:31;99794.88;;;5.57;100.00
9523;BME280;63165;43.016;25.784;2023-11-19T00:42:59;99786.22;;;5.52;100.00
9523;BME280;63165;43.016;25.784;2023-11-19T00:45:26;99792.25;;;5.51;100.00
9523;BME280;63165;43.016;25.784;2023-11-19T00:47:53;99786.22;;;5.52;100.00
9523;BME280;63165;43.016;25.784;2023-11-19T00:50:22;99790.50;;;5.52;100.00
9523;BME280;63165;43.016;25.784;2023-11-19T00:52:50;99787.94;;;5.50;100.00
9523;BME280;63165;43.016;25.784;2023-11-19T00:55:17;99782.75;;;5.50;100.00
9523;BME280;63165;43.016;25.784;2023-11-19T00:57:44;99774.97;;;5.49;100.00
9523;BME280;63165;43.016;25.784;2023-11-19T01:00:12;99777.53;;;5.53;100.00
9523;BME280;63165;43.016;25.784;2023-11-19T01:02:44;99782.75;;;5.50;100.00
9523;BME280;63165;43.016;25.784;2023-11-19T01:05:12;99787.06;;;5.51;100.00
9523;BME280;63165;43.016;25.784;2023-11-19T01:07:42;99781.00;;;5.55;100.00
9523;BME280;63165;43.016;25.784;2023-11-19T01:10:09;99775.81;;;5.58;100.00
9523;BME280;63165;43.016;25.784;2023-11-19T01:12:37;99781.91;;;5.57;100.00
9523;BME280;63165;43.016;25.784;2023-11-19T01:15:05;99784.50;;;5.57;100.00
9523;BME280;63165;43.016;25.784;2023-11-19T01:17:33;99783.63;;;5.61;100.00
9523;BME280;63165;43.016;25.784;2023-11-19T01:20:00;99791.41;;;5.61;99.92
9523;BME280;63165;43.016;25.784;2023-11-19T01:22:31;99781.88;;;5.54;100.00
9523;BME280;63165;43.016;25.784;2023-11-19T01:25:00;99792.25;;;5.59;100.00
9523;BME280;63165;43.016;25.784;2023-11-19T01:27:27;99786.22;;;5.52;100.00
9523;BME280;63165;43.016;25.784;2023-11-19T01:29:54;99797.44;;;5.60;100.00
9523;BME280;63165;43.016;25.784;2023-11-19T01:32:22;99794.00;;;5.58;100.00
9523;BME280;63165;43.016;25.784;2023-11-19T01:34:50;99814.75;;;5.52;100.00
9523;BME280;63165;43.016;25.784;2023-11-19T01:37:17;99792.25;;;5.59;100.00
9523;BME280;63165;43.016;25.784;2023-11-19T01:39:44;99805.25;;;5.56;100.00
9523;BME280;63165;43.016;25.784;2023-11-19T01:42:13;99800.91;;;5.58;99.93
9523;BME280;63165;43.016;25.784;2023-11-19T01:44:41;99820.81;;;5.60;100.00
9523;BME280;63165;43.016;25.784;2023-11-19T01:47:08;99821.66;;;5.61;100.00
9523;BME280;63165;43.016;25.784;2023-11-19T01:49:36;99806.97;;;5.61;100.00
9523;BME280;63165;43.016;25.784;2023-11-19T01:52:04;99822.53;;;5.66;100.00
9523;BME280;63165;43.016;25.784;2023-11-19T01:54:32;99802.63;;;5.67;100.00
9523;BME280;63165;43.016;25.784;2023-11-19T01:56:59;99797.47;;;5.65;99.97
9523;BME280;63165;43.016;25.784;2023-11-19T01:59:28;99800.03;;;5.67;99.51
9523;BME280;63165;43.016;25.784;2023-11-19T02:01:55;99808.69;;;5.62;98.94
9523;BME280;63165;43.016;25.784;2023-11-19T02:04:23;99808.69;;;5.64;98.93
9523;BME280;63165;43.016;25.784;2023-11-19T02:06:51;99803.50;;;5.67;98.47
9523;BME280;63165;43.016;25.784;2023-11-19T02:09:21;99818.22;;;5.71;98.35
9523;BME280;63165;43.016;25.784;2023-11-19T02:11:48;99812.16;;;5.64;97.82
9523;BME280;63165;43.016;25.784;2023-11-19T02:14:17;99797.47;;;5.56;98.43
9523;BME280;63165;43.016;25.784;2023-11-19T02:16:47;99814.75;;;5.66;98.31
9523;BME280;63165;43.016;25.784;2023-11-19T02:19:14;99807.84;;;5.63;97.32
9523;BME280;63165;43.016;25.784;2023-11-19T02:21:42;99820.78;;;5.76;97.18
9523;BME280;63165;43.016;25.784;2023-11-19T02:24:11;99812.16;;;5.80;96.77
9523;BME280;63165;43.016;25.784;2023-11-19T02:26:47;99806.97;;;5.77;95.82
9523;BME280;63165;43.016;25.784;2023-11-19T02:29:19;99806.97;;;5.77;96.14
9523;BME280;63165;43.016;25.784;2023-11-19T02:31:46;99806.09;;;5.69;96.43
9523;BME280;63165;43.016;25.784;2023-11-19T02:34:13;99801.78;;;5.60;95.95
9523;BME280;63165;43.016;25.784;2023-11-19T02:36:42;99811.28;;;5.66;96.82
9523;BME280;63165;43.016;25.784;2023-11-19T02:39:09;99815.63;;;5.62;96.43
9523;BME280;63165;43.016;25.784;2023-11-19T02:41:38;99780.16;;;5.50;96.43
9523;BME280;63165;43.016;25.784;2023-11-19T02:44:06;99817.34;;;5.68;96.53
9523;BME280;63165;43.016;25.784;2023-11-19T02:46:35;99817.34;;;5.64;95.54
9523;BME280;63165;43.016;25.784;2023-11-19T02:49:03;99803.50;;;5.55;95.68
9523;BME280;63165;43.016;25.784;2023-11-19T02:51:32;99831.19;;;5.63;95.52
9523;BME280;63165;43.016;25.784;2023-11-19T02:54:00;99832.06;;;5.58;95.55
9523;BME280;63165;43.016;25.784;2023-11-19T02:56:29;99800.03;;;5.53;95.45
9523;BME280;63165;43.016;25.784;2023-11-19T02:59:00;99821.66;;;5.55;95.52
9523;BME280;63165;43.016;25.784;2023-11-19T03:01:35;99830.31;;;5.69;94.82
9523;BME280;63165;43.016;25.784;2023-11-19T03:04:03;99809.56;;;5.58;94.56
9523;BME280;63165;43.016;25.784;2023-11-19T03:06:34;99825.13;;;5.57;94.98
9523;BME280;63165;43.016;25.784;2023-11-19T03:09:05;99837.25;;;5.64;94.75
9523;BME280;63165;43.016;25.784;2023-11-19T03:11:36;99842.44;;;5.62;95.02
9523;BME280;63165;43.016;25.784;2023-11-19T03:14:04;99854.53;;;5.67;95.13
9523;BME280;63165;43.016;25.784;2023-11-19T03:16:31;99850.19;;;5.61;94.13
9523;BME280;63165;43.016;25.784;2023-11-19T03:19:01;99837.25;;;5.73;94.57
9523;BME280;63165;43.016;25.784;2023-11-19T03:21:30;99860.59;;;5.70;94.69
9523;BME280;63165;43.016;25.784;2023-11-19T03:23:57;99827.72;;;5.58;94.84
9523;BME280;63165;43.016;25.784;2023-11-19T03:26:26;99851.97;;;5.73;94.46
9523;BME280;63165;43.016;25.784;2023-11-19T03:28:56;99826.88;;;5.56;93.12
9523;BME280;63165;43.016;25.784;2023-11-19T03:31:24;99837.25;;;5.67;93.55
9523;BME280;63165;43.016;25.784;2023-11-19T03:33:54;99841.56;;;5.59;93.19
9523;BME280;63165;43.016;25.784;2023-11-19T03:36:23;99843.28;;;5.66;93.45
9523;BME280;63165;43.016;25.784;2023-11-19T03:38:51;99845.91;;;5.71;93.36
9523;BME280;63165;43.016;25.784;2023-11-19T03:41:18;99855.41;;;5.64;92.39
9523;BME280;63165;43.016;25.784;2023-11-19T03:43:48;99848.50;;;5.69;92.33
9523;BME280;63165;43.016;25.784;2023-11-19T03:46:17;99862.34;;;5.73;92.30
9523;BME280;63165;43.016;25.784;2023-11-19T03:48:46;99868.38;;;5.72;92.08
9523;BME280;63165;43.016;25.784;2023-11-19T03:51:14;99861.47;;;5.61;92.29
9523;BME280;63165;43.016;25.784;2023-11-19T03:53:43;99874.44;;;5.75;91.66
9523;BME280;63165;43.016;25.784;2023-11-19T03:56:11;99864.91;;;5.76;91.53
9523;BME280;63165;43.016;25.784;2023-11-19T03:58:39;99873.59;;;5.69;91.43
9523;BME280;63165;43.016;25.784;2023-11-19T04:01:11;99864.91;;;5.76;91.47
9523;BME280;63165;43.016;25.784;2023-11-19T04:03:38;99846.75;;;5.62;91.09
9523;BME280;63165;43.016;25.784;2023-11-19T04:06:06;99847.59;;;5.61;90.99
9523;BME280;63165;43.016;25.784;2023-11-19T04:08:33;99890.03;;;5.77;90.43
9523;BME280;63165;43.016;25.784;2023-11-19T04:11:03;99890.88;;;5.67;90.86
9523;BME280;63165;43.016;25.784;2023-11-19T04:13:31;99900.41;;;5.83;89.32
9523;BME280;63165;43.016;25.784;2023-11-19T04:15:59;99873.59;;;5.66;89.93
9523;BME280;63165;43.016;25.784;2023-11-19T04:18:27;99883.97;;;5.64;89.58
9523;BME280;63165;43.016;25.784;2023-11-19T04:20:54;99907.31;;;5.81;89.68
9523;BME280;63165;43.016;25.784;2023-11-19T04:23:22;99899.53;;;5.82;89.68
9523;BME280;63165;43.016;25.784;2023-11-19T04:25:50;99898.66;;;5.60;89.85
9523;BME280;63165;43.016;25.784;2023-11-19T04:28:27;99914.25;;;5.76;89.21
9523;BME280;63165;43.016;25.784;2023-11-19T04:30:55;99906.44;;;5.60;89.14
9523;BME280;63165;43.016;25.784;2023-11-19T04:33:22;99916.81;;;5.60;88.99
9523;BME280;63165;43.016;25.784;2023-11-19T04:35:50;99914.25;;;5.57;89.37
9523;BME280;63165;43.016;25.784;2023-11-19T04:38:21;99895.22;;;5.60;89.19
9523;BME280;63165;43.016;25.784;2023-11-19T04:40:54;99937.59;;;5.57;89.70
9523;BME280;63165;43.016;25.784;2023-11-19T04:43:43;99958.34;;;5.67;88.94
9523;BME280;63165;43.016;25.784;2023-11-19T04:46:14;99935.00;;;5.60;87.91
9523;BME280;63165;43.016;25.784;2023-11-19T04:48:41;99950.56;;;5.67;88.32
9523;BME280;63165;43.016;25.784;2023-11-19T04:51:09;99934.16;;;5.71;87.74
9523;BME280;63165;43.016;25.784;2023-11-19T04:53:37;99932.38;;;5.59;87.64
9523;BME280;63165;43.016;25.784;2023-11-19T04:56:08;99952.31;;;5.69;87.89
9523;BME280;63165;43.016;25.784;2023-11-19T04:58:40;99942.78;;;5.60;87.70
9523;BME280;63165;43.016;25.784;2023-11-19T05:01:13;99935.00;;;5.57;87.94
9523;BME280;63165;43.016;25.784;2023-11-19T05:03:42;99912.50;;;5.56;87.20
9523;BME280;63165;43.016;25.784;2023-11-19T05:06:10;99945.38;;;5.70;87.83
9523;BME280;63165;43.016;25.784;2023-11-19T05:08:37;99914.25;;;5.56;86.67
9523;BME280;63165;43.016;25.784;2023-11-19T05:11:05;99937.56;;;5.59;87.12
9523;BME280;63165;43.016;25.784;2023-11-19T05:13:33;99965.31;;;5.75;87.63
9523;BME280;63165;43.016;25.784;2023-11-19T05:16:01;99974.81;;;5.72;87.58
9523;BME280;63165;43.016;25.784;2023-11-19T05:18:29;99929.81;;;5.57;87.15
9523;BME280;63165;43.016;25.784;2023-11-19T05:20:56;99947.97;;;5.68;87.19
9523;BME280;63165;43.016;25.784;2023-11-19T05:23:24;99947.13;;;5.72;87.13
9523;BME280;63165;43.016;25.784;2023-11-19T05:25:51;99957.53;;;5.71;87.07
9523;BME280;63165;43.016;25.784;2023-11-19T05:28:18;99965.31;;;5.78;87.65
9523;BME280;63165;43.016;25.784;2023-11-19T05:30:45;99985.16;;;5.62;87.42
9523;BME280;63165;43.016;25.784;2023-11-19T05:33:14;99972.19;;;5.64;87.32
9523;BME280;63165;43.016;25.784;2023-11-19T05:35:42;99974.81;;;5.72;87.33
9523;BME280;63165;43.016;25.784;2023-11-19T05:38:09;99980.00;;;5.72;87.49
9523;BME280;63165;43.016;25.784;2023-11-19T05:40:37;99991.28;;;5.77;87.46
9523;BME280;63165;43.016;25.784;2023-11-19T05:43:06;100000.75;;;5.66;86.66
9523;BME280;63165;43.016;25.784;2023-11-19T05:45:36;99990.38;;;5.70;87.16
9523;BME280;63165;43.016;25.784;2023-11-19T05:48:03;99962.69;;;5.58;86.73
9523;BME280;63165;43.016;25.784;2023-11-19T05:50:32;99986.06;;;5.68;86.93
9523;BME280;63165;43.016;25.784;2023-11-19T05:53:00;99997.31;;;5.77;86.71
9523;BME280;63165;43.016;25.784;2023-11-19T05:55:27;99977.41;;;5.67;86.54
9523;BME280;63165;43.016;25.784;2023-11-19T05:57:54;99987.75;;;5.61;86.68
9523;BME280;63165;43.016;25.784;2023-11-19T06:00:22;99977.41;;;5.59;86.87
9523;BME280;63165;43.016;25.784;2023-11-19T06:02:50;99990.38;;;5.62;86.60
9523;BME280;63165;43.016;25.784;2023-11-19T06:05:17;99994.72;;;5.71;86.95
9523;BME280;63165;43.016;25.784;2023-11-19T06:07:47;100004.25;;;5.77;86.72
9523;BME280;63165;43.016;25.784;2023-11-19T06:10:16;100005.09;;;5.77;86.75
9523;BME280;63165;43.016;25.784;2023-11-19T06:12:44;99991.22;;;5.64;85.57
9523;BME280;63165;43.016;25.784;2023-11-19T06:15:13;100023.28;;;5.79;85.36
9523;BME280;63165;43.016;25.784;2023-11-19T06:17:40;100014.63;;;5.77;85.71
9523;BME280;63165;43.016;25.784;2023-11-19T06:20:08;100011.19;;;5.84;85.59
9523;BME280;63165;43.016;25.784;2023-11-19T06:22:37;100038.03;;;5.80;85.82
9523;BME280;63165;43.016;25.784;2023-11-19T06:25:07;100014.63;;;5.77;85.80
9523;BME280;63165;43.016;25.784;2023-11-19T06:27:35;100008.59;;;5.87;85.53
9523;BME280;63165;43.016;25.784;2023-11-19T06:30:04;100009.47;;;5.89;85.43
9523;BME280;63165;43.016;25.784;2023-11-19T06:32:33;100025.03;;;5.91;85.49
9523;BME280;63165;43.016;25.784;2023-11-19T06:35:01;100032.00;;;5.93;85.32
9523;BME280;63165;43.016;25.784;2023-11-19T06:37:30;100030.28;;;5.95;85.38
9523;BME280;63165;43.016;25.784;2023-11-19T06:39:57;100032.81;;;5.80;85.03
9523;BME280;63165;43.016;25.784;2023-11-19T06:42:26;100027.63;;;5.86;85.02
9523;BME280;63165;43.016;25.784;2023-11-19T06:44:53;100029.38;;;5.92;85.05
9523;BME280;63165;43.016;25.784;2023-11-19T06:47:24;100007.72;;;5.93;85.00
9523;BME280;63165;43.016;25.784;2023-11-19T06:49:52;100036.28;;;5.93;84.74
9523;BME280;63165;43.016;25.784;2023-11-19T06:52:19;100035.50;;;6.12;85.03
9523;BME280;63165;43.016;25.784;2023-11-19T06:54:48;100031.16;;;5.97;84.48
9523;BME280;63165;43.016;25.784;2023-11-19T06:57:16;100032.91;;;6.09;84.43
9523;BME280;63165;43.016;25.784;2023-11-19T06:59:48;100013.00;;;6.07;84.40
9523;BME280;63165;43.016;25.784;2023-11-19T07:02:17;100054.56;;;6.22;83.93
9523;BME280;63165;43.016;25.784;2023-11-19T07:04:47;100039.84;;;6.16;84.00
9523;BME280;63165;43.016;25.784;2023-11-19T07:07:22;100040.72;;;6.14;83.09
9523;BME280;63165;43.016;25.784;2023-11-19T07:09:50;100049.38;;;6.34;83.34
9523;BME280;63165;43.016;25.784;2023-11-19T07:12:20;100041.56;;;6.22;82.57
9523;BME280;63165;43.016;25.784;2023-11-19T07:14:49;100053.72;;;6.38;82.32
9523;BME280;63165;43.016;25.784;2023-11-19T07:17:18;100062.38;;;6.47;82.85
9523;BME280;63165;43.016;25.784;2023-11-19T07:19:55;100045.91;;;6.38;82.71
9523;BME280;63165;43.016;25.784;2023-11-19T07:22:25;100044.19;;;6.50;82.19
9523;BME280;63165;43.016;25.784;2023-11-19T07:24:52;100051.09;;;6.69;82.29
9523;BME280;63165;43.016;25.784;2023-11-19T07:27:20;100065.81;;;6.75;81.02
9523;BME280;63165;43.016;25.784;2023-11-19T07:29:51;100069.28;;;6.78;82.31
9523;BME280;63165;43.016;25.784;2023-11-19T07:32:21;100102.22;;;7.06;81.87
9523;BME280;63165;43.016;25.784;2023-11-19T07:34:49;100070.13;;;7.02;80.88
9523;BME280;63165;43.016;25.784;2023-11-19T07:37:16;100077.06;;;6.98;81.09
9523;BME280;63165;43.016;25.784;2023-11-19T07:39:44;100093.50;;;7.19;80.55
9523;BME280;63165;43.016;25.784;2023-11-19T07:42:11;100083.97;;;7.19;80.92
9523;BME280;63165;43.016;25.784;2023-11-19T07:44:43;100103.03;;;7.26;79.79
9523;BME280;63165;43.016;25.784;2023-11-19T07:47:13;100074.41;;;7.23;79.63
9523;BME280;63165;43.016;25.784;2023-11-19T07:49:42;100095.19;;;7.43;79.15
9523;BME280;63165;43.016;25.784;2023-11-19T07:52:14;100105.53;;;7.57;78.54
9523;BME280;63165;43.016;25.784;2023-11-19T07:55:04;100084.78;;;7.40;76.89
9523;BME280;63165;43.016;25.784;2023-11-19T07:57:51;100089.97;;;7.51;77.99
9523;BME280;63165;43.016;25.784;2023-11-19T08:00:46;100096.00;;;7.59;77.57
9523;BME280;63165;43.016;25.784;2023-11-19T08:03:42;100076.00;;;7.69;76.98
9523;BME280;63165;43.016;25.784;2023-11-19T08:06:12;100111.50;;;7.91;77.25
9523;BME280;63165;43.016;25.784;2023-11-19T08:08:45;100114.16;;;7.77;77.22
9523;BME280;63165;43.016;25.784;2023-11-19T08:11:24;100128.84;;;7.91;75.95
9523;BME280;63165;43.016;25.784;2023-11-19T08:13:53;100095.91;;;7.77;76.86
9523;BME280;63165;43.016;25.784;2023-11-19T08:16:32;100110.69;;;7.78;74.65
9523;BME280;63165;43.016;25.784;2023-11-19T08:19:01;100118.38;;;7.98;75.44
9523;BME280;63165;43.016;25.784;2023-11-19T08:21:29;100103.69;;;7.90;74.60
9523;BME280;63165;43.016;25.784;2023-11-19T08:23:56;100085.50;;;7.76;74.97
9523;BME280;63165;43.016;25.784;2023-11-19T08:26:25;100109.78;;;7.86;73.33
9523;BME280;63165;43.016;25.784;2023-11-19T08:28:53;100121.09;;;7.75;73.49
9523;BME280;63165;43.016;25.784;2023-11-19T08:31:20;100124.56;;;7.77;73.58
9523;BME280;63165;43.016;25.784;2023-11-19T08:33:47;100100.28;;;7.78;72.85
9523;BME280;63165;43.016;25.784;2023-11-19T08:36:17;100111.53;;;7.82;73.47
9523;BME280;63165;43.016;25.784;2023-11-19T08:38:44;100089.81;;;7.82;73.96
9523;BME280;63165;43.016;25.784;2023-11-19T08:41:12;100094.94;;;8.02;74.30
9523;BME280;63165;43.016;25.784;2023-11-19T08:43:39;100097.59;;;7.91;73.55
9523;BME280;63165;43.016;25.784;2023-11-19T08:46:09;100104.53;;;7.93;73.21
9523;BME280;63165;43.016;25.784;2023-11-19T08:48:38;100102.78;;;7.97;73.09
9523;BME280;63165;43.016;25.784;2023-11-19T08:51:06;100127.00;;;8.16;73.78
9523;BME280;63165;43.016;25.784;2023-11-19T08:53:34;100129.66;;;8.10;73.18
9523;BME280;63165;43.016;25.784;2023-11-19T08:56:02;100133.91;;;8.23;73.27
9523;BME280;63165;43.016;25.784;2023-11-19T08:58:29;100115.72;;;8.14;73.61
9523;BME280;63165;43.016;25.784;2023-11-19T09:00:57;100133.06;;;8.16;73.50
9523;BME280;63165;43.016;25.784;2023-11-19T09:03:24;100124.25;;;8.38;73.26
9523;BME280;63165;43.016;25.784;2023-11-19T09:05:55;100139.03;;;8.40;72.90
9523;BME280;63165;43.016;25.784;2023-11-19T09:08:25;100128.63;;;8.42;72.60
9523;BME280;63165;43.016;25.784;2023-11-19T09:10:54;100110.34;;;8.40;71.56
9523;BME280;63165;43.016;25.784;2023-11-19T09:41:03;100086.72;;;8.66;71.02
9523;BME280;63165;43.016;25.784;2023-11-19T09:47:12;100082.28;;;8.73;70.43
9523;BME280;63165;43.016;25.784;2023-11-19T09:53:50;100095.25;;;8.82;68.73
9523;BME280;63165;43.016;25.784;2023-11-19T09:56:29;100096.19;;;8.77;68.39
9523;BME280;63165;43.016;25.784;2023-11-19T10:02:14;100078.84;;;8.69;67.98
9523;BME280;63165;43.016;25.784;2023-11-19T10:04:43;100103.94;;;8.83;68.81
9523;BME280;63165;43.016;25.784;2023-11-19T10:07:12;100100.44;;;8.87;68.49
9523;BME280;63165;43.016;25.784;2023-11-19T10:09:40;100102.06;;;9.00;68.07
9523;BME280;63165;43.016;25.784;2023-11-19T10:12:09;100087.19;;;9.10;68.65
9523;BME280;63165;43.016;25.784;2023-11-19T10:14:38;100084.47;;;9.18;69.28
9523;BME280;63165;43.016;25.784;2023-11-19T10:17:07;100063.63;;;9.16;69.07
9523;BME280;63165;43.016;25.784;2023-11-19T10:19:35;100086.81;;;9.42;69.03
9523;BME280;63165;43.016;25.784;2023-11-19T10:22:04;100082.53;;;9.35;69.00
9523;BME280;63165;43.016;25.784;2023-11-19T10:24:32;100082.44;;;9.46;68.17
9523;BME280;63165;43.016;25.784;2023-11-19T10:27:00;100053.66;;;9.52;68.50
9523;BME280;63165;43.016;25.784;2023-11-19T10:29:31;100070.00;;;9.65;68.25
9523;BME280;63165;43.016;25.784;2023-11-19T10:32:01;100077.69;;;9.77;67.62
9523;BME280;63165;43.016;25.784;2023-11-19T11:02:55;100056.13;;;10.25;65.89
9523;BME280;63165;43.016;25.784;2023-11-19T11:05:26;100033.53;;;10.19;65.93
9523;BME280;63165;43.016;25.784;2023-11-19T11:07:55;100031.78;;;10.21;65.38
9523;BME280;63165;43.016;25.784;2023-11-19T11:10:29;100037.78;;;10.26;65.14
9523;BME280;63165;43.016;25.784;2023-11-19T11:13:03;100033.38;;;10.32;65.58
9523;BME280;63165;43.016;25.784;2023-11-19T11:15:37;100029.75;;;10.42;65.25
9523;BME280;63165;43.016;25.784;2023-11-19T11:18:08;100047.91;;;10.51;65.24
9523;BME280;63165;43.016;25.784;2023-11-19T11:20:43;100050.41;;;10.57;64.73
9523;BME280;63165;43.016;25.784;2023-11-19T11:23:28;100039.88;;;10.62;63.57
9523;BME280;63165;43.016;25.784;2023-11-19T11:26:14;100042.59;;;10.54;62.17
9523;BME280;63165;43.016;25.784;2023-11-19T11:28:52;100063.78;;;10.39;61.79
9523;BME280;63165;43.016;25.784;2023-11-19T11:31:34;100028.44;;;10.11;62.36
9523;BME280;63165;43.016;25.784;2023-11-19T11:34:16;100039.81;;;10.07;62.68
9523;BME280;63165;43.016;25.784;2023-11-19T11:36:55;100038.31;;;9.91;63.27
9523;BME280;63165;43.016;25.784;2023-11-19T11:39:29;100036.72;;;9.81;63.57
9523;BME280;63165;43.016;25.784;2023-11-19T11:42:32;100021.25;;;9.65;63.48
9523;BME280;63165;43.016;25.784;2023-11-19T12:02:27;100047.53;;;10.17;62.27
9523;BME280;63165;43.016;25.784;2023-11-19T12:05:18;100037.47;;;9.87;61.35
9523;BME280;63165;43.016;25.784;2023-11-19T12:18:40;100020.69;;;10.04;60.94
9523;BME280;63165;43.016;25.784;2023-11-19T12:54:14;100007.28;;;10.27;59.22
9523;BME280;63165;43.016;25.784;2023-11-19T12:56:52;100013.44;;;10.23;59.03
9523;BME280;63165;43.016;25.784;2023-11-19T12:59:20;100002.22;;;10.16;59.04
9523;BME280;63165;43.016;25.784;2023-11-19T13:01:56;100000.47;;;10.17;58.63
9523;BME280;63165;43.016;25.784;2023-11-19T13:04:29;99997.03;;;10.13;58.93
9523;BME280;63165;43.016;25.784;2023-11-19T13:07:02;99995.31;;;10.12;58.34
9523;BME280;63165;43.016;25.784;2023-11-19T13:09:34;99984.66;;;10.24;57.97
9523;BME280;63165;43.016;25.784;2023-11-19T13:12:15;99949.19;;;10.08;59.04
9523;BME280;63165;43.016;25.784;2023-11-19T13:14:42;99948.41;;;10.04;59.45
9523;BME280;63165;43.016;25.784;2023-11-19T13:17:16;99936.28;;;9.99;59.34
9523;BME280;63165;43.016;25.784;2023-11-19T13:19:47;99945.88;;;9.98;59.10
9523;BME280;63165;43.016;25.784;2023-11-19T13:22:16;99951.09;;;9.97;59.77
9523;BME280;63165;43.016;25.784;2023-11-19T13:24:50;99966.69;;;10.04;59.35
9523;BME280;63165;43.016;25.784;2023-11-19T13:27:23;99956.47;;;9.87;59.62
9523;BME280;63165;43.016;25.784;2023-11-19T13:29:54;99965.25;;;9.85;59.52
9523;BME280;63165;43.016;25.784;2023-11-19T13:32:21;99960.97;;;9.79;59.82
9523;BME280;63165;43.016;25.784;2023-11-19T13:34:52;99954.91;;;9.77;59.38
9523;BME280;63165;43.016;25.784;2023-11-19T13:37:21;99929.78;;;9.68;59.96
9523;BME280;63165;43.016;25.784;2023-11-19T13:39:52;99949.78;;;9.71;59.96
9523;BME280;63165;43.016;25.784;2023-11-19T13:42:19;99976.63;;;9.81;59.87
9523;BME280;63165;43.016;25.784;2023-11-19T13:44:47;99964.50;;;9.77;59.98
9523;BME280;63165;43.016;25.784;2023-11-19T13:47:14;99948.13;;;9.64;59.99
9523;BME280;63165;43.016;25.784;2023-11-19T13:49:41;99974.16;;;9.71;59.24
9523;BME280;63165;43.016;25.784;2023-11-19T13:52:09;99945.56;;;9.61;59.60
9523;BME280;63165;43.016;25.784;2023-11-19T13:54:37;99950.84;;;9.58;59.79
9523;BME280;63165;43.016;25.784;2023-11-19T13:57:06;99951.63;;;9.61;59.40
9523;BME280;63165;43.016;25.784;2023-11-19T13:59:33;99948.22;;;9.58;59.63
9523;BME280;63165;43.016;25.784;2023-11-19T14:02:06;99942.22;;;9.51;59.61
9523;BME280;63165;43.016;25.784;2023-11-19T14:04:33;99944.81;;;9.52;59.66
9523;BME280;63165;43.016;25.784;2023-11-19T14:07:02;99956.19;;;9.48;59.31
9523;BME280;63165;43.016;25.784;2023-11-19T14:09:30;99942.34;;;9.43;59.86
9523;BME280;63165;43.016;25.784;2023-11-19T14:11:57;99950.16;;;9.43;59.30
9523;BME280;63165;43.016;25.784;2023-11-19T14:14:26;99949.56;;;9.21;59.97
9523;BME280;63165;43.016;25.784;2023-11-19T14:16:56;99962.47;;;9.33;60.18
9523;BME280;63165;43.016;25.784;2023-11-19T14:19:24;99972.13;;;9.28;60.91
9523;BME280;63165;43.016;25.784;2023-11-19T14:21:52;99972.31;;;9.13;61.23
9523;BME280;63165;43.016;25.784;2023-11-19T14:24:20;99969.59;;;9.21;61.77
9523;BME280;63165;43.016;25.784;2023-11-19T14:26:48;99988.81;;;9.15;62.08
9523;BME280;63165;43.016;25.784;2023-11-19T14:29:17;99972.44;;;9.02;62.50
9523;BME280;63165;43.016;25.784;2023-11-19T14:31:48;99970.09;;;8.78;63.54
9523;BME280;63165;43.016;25.784;2023-11-19T14:34:16;99989.13;;;8.86;64.04
9523;BME280;63165;43.016;25.784;2023-11-19T14:36:43;99992.66;;;8.83;64.50
9523;BME280;63165;43.016;25.784;2023-11-19T14:39:10;99985.03;;;8.60;64.94
9523;BME280;63165;43.016;25.784;2023-11-19T14:41:38;99997.06;;;8.75;65.15
9523;BME280;63165;43.016;25.784;2023-11-19T14:44:08;99986.88;;;8.50;65.44
9523;BME280;63165;43.016;25.784;2023-11-19T14:46:35;99994.59;;;8.64;65.33
9523;BME280;63165;43.016;25.784;2023-11-19T14:49:04;99991.22;;;8.53;65.97
9523;BME280;63165;43.016;25.784;2023-11-19T14:51:35;99995.66;;;8.39;66.13
9523;BME280;63165;43.016;25.784;2023-11-19T14:54:03;100020.78;;;8.49;66.40
9523;BME280;63165;43.016;25.784;2023-11-19T14:56:31;99982.69;;;8.31;66.69
9523;BME280;63165;43.016;25.784;2023-11-19T15:02:41;99984.56;;;8.12;67.98
9523;BME280;63165;43.016;25.784;2023-11-19T15:05:41;100007.06;;;8.24;67.83
9523;BME280;63165;43.016;25.784;2023-11-19T15:08:08;100009.78;;;8.10;68.58
9523;BME280;63165;43.016;25.784;2023-11-19T15:10:36;100014.94;;;8.18;68.82
9523;BME280;63165;43.016;25.784;2023-11-19T15:13:03;100033.19;;;8.11;69.16
9523;BME280;63165;43.016;25.784;2023-11-19T15:15:30;100025.41;;;8.08;69.54
9523;BME280;63165;43.016;25.784;2023-11-19T15:17:58;100013.31;;;8.01;69.74
9523;BME280;63165;43.016;25.784;2023-11-19T15:20:25;100011.63;;;7.91;70.90
9523;BME280;63165;43.016;25.784;2023-11-19T15:26:22;100038.63;;;7.76;72.02
9523;BME280;63165;43.016;25.784;2023-11-19T15:28:52;100035.19;;;7.66;72.71
9523;BME280;63165;43.016;25.784;2023-11-19T15:31:53;100042.19;;;7.55;72.75
9523;BME280;63165;43.016;25.784;2023-11-19T15:34:34;100028.44;;;7.24;72.82